Time;durP1;ratioP1;P1;durP2;ratioP2;P2;SDS_P1;SDS_P2;PMS_P1;PMS_P2;Temp;Humidity;BMP_temperature;BMP_pressure;BME280_temperature;BME280_humidity;BME280_pressure;Samples;Min_cycle;Max_cycle;Signal;HPM_P1;HPM_P2
2022/03/22 00:00:18;;;;;;;79.70;54.08;;;9.70;99.90;;;;;;5092470;28;20024;-58
2022/03/22 00:02:44;;;;;;;79.10;52.55;;;9.70;99.90;;;;;;5092261;28;20076;-58
2022/03/22 00:05:10;;;;;;;78.68;49.80;;;9.80;99.90;;;;;;5092492;28;20094;-58
2022/03/22 00:07:35;;;;;;;75.82;49.75;;;9.70;99.90;;;;;;5092543;28;20048;-58
2022/03/22 00:10:01;;;;;;;69.80;47.72;;;9.50;99.90;;;;;;5092337;28;20062;-58
2022/03/22 00:12:28;;;;;;;68.15;46.72;;;9.40;99.90;;;;;;5092003;28;20054;-58
2022/03/22 00:14:55;;;;;;;69.35;47.17;;;9.20;99.90;;;;;;5092697;28;20017;-58
2022/03/22 00:17:21;;;;;;;71.10;46.47;;;9.30;99.90;;;;;;5092881;28;20017;-58
2022/03/22 00:19:47;;;;;;;70.43;46.17;;;9.20;99.90;;;;;;5091395;28;20020;-58
2022/03/22 00:22:14;;;;;;;67.63;44.20;;;9.30;99.90;;;;;;5091890;28;20066;-58
2022/03/22 00:24:40;;;;;;;66.28;45.00;;;9.30;99.90;;;;;;5092338;28;20397;-58
2022/03/22 00:27:06;;;;;;;65.72;43.13;;;9.20;99.90;;;;;;5090502;28;20020;-58
2022/03/22 00:29:32;;;;;;;70.82;43.55;;;9.10;99.90;;;;;;5091560;28;20064;-58
2022/03/22 00:31:58;;;;;;;58.60;41.25;;;9.00;99.90;;;;;;5091894;28;20059;-58
2022/03/22 00:34:24;;;;;;;64.40;41.72;;;8.90;99.90;;;;;;5091483;28;20024;-58
2022/03/22 00:36:50;;;;;;;64.18;42.10;;;8.80;99.90;;;;;;5091871;28;20421;-58
2022/03/22 00:39:16;;;;;;;71.07;42.30;;;8.80;99.90;;;;;;5091400;28;20031;-58
2022/03/22 00:41:42;;;;;;;59.50;40.15;;;8.90;99.90;;;;;;5091486;28;20457;-58
2022/03/22 00:44:08;;;;;;;65.30;41.80;;;9.00;99.90;;;;;;5091541;28;20027;-58
2022/03/22 00:46:38;;;;;;;58.75;39.60;;;9.00;99.90;;;;;;5090105;28;20538;-58
2022/03/22 00:49:04;;;;;;;60.42;40.28;;;9.00;99.90;;;;;;5091513;28;20028;-58
2022/03/22 00:51:30;;;;;;;62.03;40.83;;;8.90;99.90;;;;;;5091208;28;20031;-58
2022/03/22 00:53:59;;;;;;;57.97;40.85;;;8.90;99.90;;;;;;5091322;28;20223;-58
2022/03/22 00:56:25;;;;;;;62.38;39.25;;;8.80;99.90;;;;;;5091080;28;20397;-58
2022/03/22 01:00:01;;;;;;;64.60;40.67;;;8.80;99.90;;;;;;5091433;28;20079;-58
2022/03/22 01:01:36;;;;;;;52.47;38.28;;;8.80;99.90;;;;;;5090865;28;20115;-58
2022/03/22 01:04:04;;;;;;;60.10;38.15;;;8.90;99.90;;;;;;5089751;28;20134;-58
2022/03/22 01:06:30;;;;;;;55.65;36.83;;;9.00;99.90;;;;;;5090857;28;20024;-58
2022/03/22 01:08:56;;;;;;;58.03;37.35;;;9.10;99.90;;;;;;5090897;28;20130;-58
2022/03/22 01:11:22;;;;;;;52.60;36.00;;;9.20;99.90;;;;;;5090794;28;20445;-58
2022/03/22 01:13:47;;;;;;;57.95;36.83;;;9.30;99.90;;;;;;5090840;28;20017;-59
2022/03/22 01:16:13;;;;;;;51.67;35.40;;;9.40;99.90;;;;;;5090718;28;20024;-58
2022/03/22 01:18:38;;;;;;;48.20;35.13;;;9.50;99.90;;;;;;5091277;28;20020;-58
2022/03/22 01:21:04;;;;;;;56.22;36.00;;;9.50;99.90;;;;;;5090750;28;20111;-58
2022/03/22 01:23:30;;;;;;;49.75;35.20;;;9.50;99.90;;;;;;5090721;28;20516;-58
2022/03/22 01:25:55;;;;;;;53.78;36.00;;;9.50;99.90;;;;;;5092229;28;20031;-58
2022/03/22 01:28:21;;;;;;;48.53;35.05;;;9.40;99.90;;;;;;5092552;28;20301;-59
2022/03/22 01:30:47;;;;;;;51.38;33.92;;;9.40;99.90;;;;;;5092282;28;20110;-58
2022/03/22 01:33:12;;;;;;;52.97;35.38;;;9.30;99.90;;;;;;5090832;28;20025;-58
2022/03/22 01:35:38;;;;;;;47.55;33.05;;;9.20;99.90;;;;;;5091201;28;20024;-58
2022/03/22 01:38:04;;;;;;;48.60;34.50;;;9.30;99.90;;;;;;5091936;28;20060;-58
2022/03/22 01:40:31;;;;;;;49.35;33.20;;;9.30;99.90;;;;;;5090271;28;20036;-58
2022/03/22 01:42:58;;;;;;;52.90;34.80;;;9.40;99.90;;;;;;5090482;28;20024;-58
2022/03/22 01:45:23;;;;;;;52.00;35.97;;;9.40;99.90;;;;;;5090028;28;20063;-58
2022/03/22 01:47:50;;;;;;;54.85;35.50;;;9.50;99.90;;;;;;5089790;28;20024;-58
2022/03/22 01:50:19;;;;;;;50.05;34.90;;;9.40;99.90;;;;;;5090088;28;20024;-58
2022/03/22 01:52:45;;;;;;;56.75;35.67;;;9.30;99.90;;;;;;5090326;28;20468;-58
2022/03/22 01:55:13;;;;;;;50.67;35.78;;;9.20;99.90;;;;;;5089385;28;20696;-58
2022/03/22 01:57:40;;;;;;;52.50;36.13;;;9.20;99.90;;;;;;5090542;28;20492;-58
2022/03/22 02:00:12;;;;;;;49.65;33.88;;;9.20;99.90;;;;;;5090237;28;20017;-58
2022/03/22 02:08:11;;;;;;;50.30;33.85;;;8.90;99.90;;;;;;5090076;28;20139;-58
2022/03/22 02:10:38;;;;;;;50.58;35.50;;;8.80;99.90;;;;;;5090444;28;20535;-58
2022/03/22 02:13:04;;;;;;;49.40;33.40;;;8.80;99.90;;;;;;5089948;28;20450;-59
2022/03/22 02:15:30;;;;;;;47.33;32.50;;;8.80;99.90;;;;;;5090351;28;20024;-57
2022/03/22 02:17:56;;;;;;;49.40;34.17;;;8.80;99.90;;;;;;5090018;28;20464;-57
2022/03/22 02:20:21;;;;;;;50.65;33.60;;;8.70;99.90;;;;;;5089854;28;20039;-57
2022/03/22 02:23:05;;;;;;;50.70;33.63;;;8.70;99.90;;;;;;5089963;28;20024;-57
2022/03/22 02:25:35;;;;;;;50.80;33.58;;;8.60;99.90;;;;;;5089545;28;20030;-57
2022/03/22 02:28:03;;;;;;;48.38;34.03;;;8.60;99.90;;;;;;5090406;28;20031;-57
2022/03/22 02:30:30;;;;;;;47.08;33.03;;;8.50;99.90;;;;;;5090124;28;20174;-57
2022/03/22 02:32:59;;;;;;;49.00;32.30;;;8.60;99.90;;;;;;5089981;28;20081;-57
2022/03/22 02:35:25;;;;;;;47.80;32.25;;;8.60;99.90;;;;;;5090197;28;20046;-57
2022/03/22 02:37:51;;;;;;;48.75;33.28;;;8.50;99.90;;;;;;5088662;28;20024;-57
2022/03/22 02:40:18;;;;;;;52.38;34.17;;;8.60;99.90;;;;;;5089844;28;20111;-57
2022/03/22 02:42:50;;;;;;;48.35;32.28;;;8.70;99.90;;;;;;5089809;28;20070;-57
2022/03/22 02:45:17;;;;;;;45.75;31.60;;;8.60;99.90;;;;;;5089896;28;20119;-57
2022/03/22 02:47:43;;;;;;;50.33;31.98;;;8.50;99.90;;;;;;5089740;28;20393;-57
2022/03/22 02:50:10;;;;;;;47.40;31.77;;;8.60;99.90;;;;;;5089963;28;20043;-57
2022/03/22 02:52:37;;;;;;;47.95;30.73;;;8.60;99.90;;;;;;5089972;28;20024;-57
2022/03/22 02:55:06;;;;;;;41.72;29.05;;;8.30;99.90;;;;;;5091143;28;20024;-57
2022/03/22 02:57:36;;;;;;;42.03;28.88;;;8.10;99.90;;;;;;5090557;28;20016;-57
2022/03/22 03:00:05;;;;;;;41.17;29.63;;;8.10;99.90;;;;;;5092313;28;20024;-57
2022/03/22 03:02:31;;;;;;;46.10;30.80;;;8.10;99.90;;;;;;5093290;28;20106;-57
2022/03/22 03:04:57;;;;;;;47.80;31.17;;;8.10;99.90;;;;;;5094355;28;20311;-57
2022/03/22 03:07:22;;;;;;;46.78;31.85;;;8.00;99.90;;;;;;5094337;28;20071;-57
2022/03/22 03:09:48;;;;;;;49.25;30.52;;;7.90;99.90;;;;;;5093478;28;20110;-57
2022/03/22 03:12:14;;;;;;;44.92;29.40;;;7.80;99.90;;;;;;5093473;28;20106;-57
2022/03/22 03:14:40;;;;;;;40.53;28.67;;;7.50;99.90;;;;;;5093155;28;20081;-57
2022/03/22 03:17:08;;;;;;;51.28;32.53;;;7.50;99.90;;;;;;5094254;28;20501;-57
2022/03/22 03:19:34;;;;;;;43.78;30.38;;;7.50;99.90;;;;;;5093789;28;20038;-57
2022/03/22 03:22:00;;;;;;;47.58;30.55;;;7.60;99.90;;;;;;5094081;28;20099;-57
2022/03/22 03:24:25;;;;;;;44.97;31.40;;;7.60;99.90;;;;;;5094591;28;20091;-57
2022/03/22 03:26:51;;;;;;;44.88;30.88;;;7.60;99.90;;;;;;5095076;28;20032;-57
2022/03/22 03:29:17;;;;;;;45.67;30.77;;;7.60;99.90;;;;;;5093540;28;20090;-57
2022/03/22 03:31:43;;;;;;;46.10;30.30;;;7.70;99.90;;;;;;5093730;28;20031;-57
2022/03/22 03:34:08;;;;;;;46.17;31.02;;;7.70;99.90;;;;;;5094265;28;20470;-57
2022/03/22 03:36:34;;;;;;;51.63;31.17;;;7.70;99.90;;;;;;5092880;28;20028;-57
2022/03/22 03:39:01;;;;;;;47.10;31.52;;;7.70;99.90;;;;;;5092139;28;20035;-57
2022/03/22 03:47:04;;;;;;;42.13;25.08;;;8.20;99.90;;;;;;5092986;28;20036;-57
2022/03/22 03:49:41;;;;;;;36.80;23.38;;;8.40;99.90;;;;;;5092602;28;20036;-57
2022/03/22 03:52:09;;;;;;;34.33;23.33;;;8.60;99.90;;;;;;5093490;28;20099;-57
2022/03/22 03:54:36;;;;;;;34.83;22.58;;;8.80;99.90;;;;;;5093612;28;20020;-57
2022/03/22 03:57:03;;;;;;;37.20;22.40;;;8.90;99.90;;;;;;5093419;28;20017;-57
2022/03/22 03:59:28;;;;;;;32.10;22.40;;;8.90;99.90;;;;;;5092766;28;20089;-57
2022/03/22 04:01:54;;;;;;;30.10;20.88;;;9.00;99.90;;;;;;5092478;28;20028;-57
2022/03/22 04:04:20;;;;;;;35.40;21.77;;;9.00;99.90;;;;;;5092161;28;20028;-57
2022/03/22 04:06:47;;;;;;;38.00;23.08;;;9.00;99.90;;;;;;5092606;28;20054;-57
2022/03/22 04:09:13;;;;;;;35.03;21.77;;;8.90;99.90;;;;;;5090852;28;20040;-57
2022/03/22 04:11:41;;;;;;;38.60;21.83;;;8.90;99.90;;;;;;5092188;28;20047;-57
2022/03/22 04:14:06;;;;;;;35.58;20.92;;;8.90;99.90;;;;;;5092079;28;20020;-57
2022/03/22 04:16:32;;;;;;;34.55;21.30;;;9.00;99.90;;;;;;5091862;28;20737;-57
2022/03/22 04:18:58;;;;;;;34.47;22.00;;;8.90;99.90;;;;;;5092199;28;20035;-57
2022/03/22 04:21:23;;;;;;;32.47;21.02;;;8.80;99.90;;;;;;5091977;28;20089;-57
2022/03/22 04:23:49;;;;;;;37.33;22.83;;;8.80;99.90;;;;;;5091825;28;20020;-57
2022/03/22 04:26:14;;;;;;;35.85;22.20;;;8.80;99.90;;;;;;5091783;28;20039;-57
2022/03/22 04:34:08;;;;;;;33.80;21.27;;;8.80;99.90;;;;;;5092218;28;20081;-57
2022/03/22 04:36:35;;;;;;;35.90;23.52;;;8.80;99.90;;;;;;5091964;28;20025;-57
2022/03/22 04:39:01;;;;;;;36.40;23.38;;;8.70;99.90;;;;;;5091867;28;20077;-57
2022/03/22 04:41:27;;;;;;;37.50;22.05;;;8.80;99.90;;;;;;5092075;28;20454;-57
2022/03/22 04:43:53;;;;;;;36.13;21.67;;;8.80;99.90;;;;;;5091720;28;20020;-57
2022/03/22 04:46:18;;;;;;;33.60;21.25;;;8.70;99.90;;;;;;5091478;28;20449;-57
2022/03/22 04:48:45;;;;;;;39.15;22.25;;;8.60;99.90;;;;;;5091496;28;20035;-57
2022/03/22 04:56:46;;;;;;;37.17;22.08;;;8.40;99.90;;;;;;5091503;28;20569;-57
2022/03/22 04:59:13;;;;;;;33.20;22.38;;;8.10;99.90;;;;;;5091924;28;20027;-57
2022/03/22 05:01:39;;;;;;;34.05;22.70;;;7.90;99.90;;;;;;5091142;28;20028;-57
2022/03/22 05:04:05;;;;;;;41.25;21.88;;;7.90;99.90;;;;;;5090987;28;20058;-57
2022/03/22 05:06:35;;;;;;;34.42;22.27;;;7.90;99.90;;;;;;5091099;28;20024;-57
2022/03/22 05:09:02;;;;;;;33.28;20.75;;;8.00;99.90;;;;;;5091169;28;20072;-57
2022/03/22 05:11:27;;;;;;;38.25;21.67;;;8.00;99.90;;;;;;5091285;28;20043;-57
2022/03/22 05:13:56;;;;;;;33.67;21.33;;;8.20;99.90;;;;;;5090771;28;20092;-57
2022/03/22 05:16:22;;;;;;;34.83;20.98;;;8.30;99.90;;;;;;5091421;28;20107;-57
2022/03/22 05:18:48;;;;;;;37.33;22.35;;;8.30;99.90;;;;;;5091560;28;20461;-57
2022/03/22 05:21:13;;;;;;;33.60;21.27;;;8.30;99.90;;;;;;5090462;28;20032;-57
2022/03/22 05:23:39;;;;;;;31.92;21.08;;;8.10;99.90;;;;;;5091605;28;20034;-57
2022/03/22 05:26:05;;;;;;;40.63;21.73;;;8.00;99.90;;;;;;5092825;28;20023;-57
2022/03/22 05:28:32;;;;;;;38.40;22.02;;;8.00;99.90;;;;;;5092259;28;20008;-57
2022/03/22 05:30:58;;;;;;;39.08;23.52;;;8.00;99.90;;;;;;5091709;28;20024;-57
2022/03/22 05:33:23;;;;;;;30.60;21.90;;;8.00;99.90;;;;;;5091788;28;20032;-57
2022/03/22 05:35:49;;;;;;;34.83;22.88;;;7.90;99.90;;;;;;5091953;28;20024;-57
2022/03/22 05:38:15;;;;;;;37.03;22.48;;;7.90;99.90;;;;;;5092321;28;20028;-57
2022/03/22 05:40:41;;;;;;;39.10;21.55;;;7.90;99.90;;;;;;5091346;28;20028;-57
2022/03/22 05:43:07;;;;;;;43.38;22.77;;;8.00;99.90;;;;;;5091783;28;20049;-57
2022/03/22 05:45:33;;;;;;;34.70;22.23;;;8.00;99.90;;;;;;5090242;28;20031;-57
2022/03/22 05:48:00;;;;;;;37.40;22.85;;;8.10;99.90;;;;;;5092278;28;20032;-57
2022/03/22 05:50:29;;;;;;;36.05;21.13;;;8.10;99.90;;;;;;5091971;28;20022;-57
2022/03/22 05:52:55;;;;;;;33.45;21.30;;;8.10;99.90;;;;;;5091918;28;20046;-57
2022/03/22 05:55:21;;;;;;;29.83;20.77;;;8.10;99.90;;;;;;5093378;28;20028;-57
2022/03/22 05:57:46;;;;;;;32.70;21.23;;;8.00;99.90;;;;;;5092662;28;20020;-57
2022/03/22 06:00:13;;;;;;;36.22;20.85;;;8.00;99.90;;;;;;5091379;28;20459;-58
2022/03/22 06:02:40;;;;;;;31.52;20.63;;;8.00;99.90;;;;;;5090322;28;20485;-57
2022/03/22 06:05:11;;;;;;;36.72;21.83;;;8.10;99.90;;;;;;5090817;28;20020;-58
2022/03/22 06:07:37;;;;;;;34.38;21.92;;;8.00;99.90;;;;;;5090992;28;20412;-57
2022/03/22 06:10:05;;;;;;;34.42;21.15;;;8.00;99.90;;;;;;5090483;28;20044;-57
2022/03/22 06:12:43;;;;;;;36.58;21.55;;;8.10;99.90;;;;;;5090209;28;20504;-57
2022/03/22 06:15:20;;;;;;;32.85;20.83;;;8.20;99.90;;;;;;5090060;28;20552;-57
2022/03/22 06:17:55;;;;;;;34.10;20.33;;;8.20;99.90;;;;;;5091778;28;20035;-57
2022/03/22 06:20:24;;;;;;;35.92;20.60;;;8.20;99.90;;;;;;5091191;28;20082;-57
2022/03/22 06:22:50;;;;;;;32.42;19.98;;;8.20;99.90;;;;;;5091208;28;20019;-57
2022/03/22 06:25:20;;;;;;;33.33;19.55;;;8.00;99.90;;;;;;5090173;28;20095;-56
2022/03/22 06:27:48;;;;;;;32.55;19.63;;;7.90;99.90;;;;;;5089899;28;20077;-57
2022/03/22 06:30:15;;;;;;;33.20;20.63;;;8.10;99.90;;;;;;5089932;28;20049;-57
2022/03/22 06:32:45;;;;;;;39.40;19.90;;;8.20;99.90;;;;;;5090508;28;20039;-57
2022/03/22 06:35:12;;;;;;;37.25;20.45;;;8.40;99.90;;;;;;5094070;28;20023;-57
2022/03/22 06:37:39;;;;;;;32.95;19.30;;;8.60;99.90;;;;;;5094156;28;20039;-57
2022/03/22 06:40:06;;;;;;;29.45;18.05;;;8.80;99.90;;;;;;5093982;28;20528;-57
2022/03/22 06:42:32;;;;;;;33.33;16.98;;;8.90;99.90;;;;;;5094164;28;20024;-57
2022/03/22 06:44:58;;;;;;;25.20;17.13;;;8.90;99.90;;;;;;5094093;28;20016;-57
2022/03/22 06:47:24;;;;;;;28.35;17.90;;;8.90;99.90;;;;;;5094244;28;20529;-57
2022/03/22 06:49:49;;;;;;;32.85;20.80;;;9.00;99.90;;;;;;5086346;28;20047;-57
2022/03/22 06:52:15;;;;;;;35.53;21.67;;;9.00;99.90;;;;;;5074262;28;20090;-57
2022/03/22 06:54:41;;;;;;;40.10;22.75;;;9.20;99.90;;;;;;5074262;28;20129;-57
2022/03/22 06:57:06;;;;;;;30.95;20.45;;;9.20;99.90;;;;;;5075897;28;20423;-57
2022/03/22 06:59:34;;;;;;;31.20;19.15;;;9.30;99.90;;;;;;5077391;28;20040;-57
2022/03/22 07:02:00;;;;;;;29.83;16.17;;;9.50;99.90;;;;;;5074385;28;20414;-57
2022/03/22 07:04:27;;;;;;;33.65;16.58;;;9.50;99.90;;;;;;5070386;28;20037;-57
2022/03/22 07:06:53;;;;;;;27.27;15.82;;;9.70;99.90;;;;;;5075616;28;20032;-57
2022/03/22 07:09:18;;;;;;;27.63;15.38;;;9.90;99.90;;;;;;5077468;28;20393;-58
2022/03/22 07:11:49;;;;;;;28.55;15.63;;;10.00;99.90;;;;;;5080243;28;20032;-57
2022/03/22 07:14:23;;;;;;;27.02;14.77;;;10.30;99.90;;;;;;5079287;28;20054;-57
2022/03/22 07:16:48;;;;;;;32.15;16.15;;;10.50;99.90;;;;;;5064563;28;20115;-57
2022/03/22 07:19:15;;;;;;;25.30;15.77;;;10.60;99.90;;;;;;5068369;28;20453;-58
2022/03/22 07:21:42;;;;;;;28.50;15.95;;;10.70;99.90;;;;;;5072127;28;20030;-57
2022/03/22 07:24:08;;;;;;;23.42;14.25;;;10.70;99.90;;;;;;5075327;28;20029;-58
2022/03/22 07:26:34;;;;;;;28.17;17.30;;;10.80;99.90;;;;;;5076237;28;20023;-58
2022/03/22 07:29:00;;;;;;;27.60;17.80;;;10.80;99.90;;;;;;5075797;28;20027;-58
2022/03/22 07:31:25;;;;;;;26.30;15.93;;;10.70;99.90;;;;;;5071297;28;20020;-56
2022/03/22 07:33:51;;;;;;;27.00;16.55;;;10.80;99.90;;;;;;5067130;28;20097;-57
2022/03/22 07:36:17;;;;;;;29.27;16.33;;;10.90;99.90;;;;;;5072109;28;20504;-58
2022/03/22 07:38:42;;;;;;;25.02;16.40;;;11.00;99.90;;;;;;5069944;28;20020;-57
2022/03/22 07:41:12;;;;;;;26.45;16.95;;;11.20;99.90;;;;;;5071310;28;20063;-57
2022/03/22 07:43:38;;;;;;;23.20;15.93;;;11.20;99.90;;;;;;5062446;28;20040;-57
2022/03/22 07:46:04;;;;;;;26.98;15.40;;;11.30;99.90;;;;;;5062781;28;20028;-57
2022/03/22 07:48:30;;;;;;;27.33;16.10;;;11.30;99.90;;;;;;5071080;28;20028;-57
2022/03/22 07:53:43;;;;;;;23.92;16.00;;;11.50;99.90;;;;;;5066486;28;20433;-57
2022/03/22 07:56:09;;;;;;;24.20;15.02;;;11.50;99.90;;;;;;5067259;28;20017;-57
2022/03/22 07:58:34;;;;;;;24.08;16.38;;;11.60;99.90;;;;;;5070869;28;20043;-57
2022/03/22 08:01:00;;;;;;;29.02;17.30;;;12.00;99.90;;;;;;5081091;28;20024;-57
2022/03/22 08:03:26;;;;;;;23.20;16.00;;;12.50;99.90;;;;;;5066350;28;20031;-58
2022/03/22 08:05:52;;;;;;;24.33;14.73;;;12.90;99.90;;;;;;5066238;28;20048;-58
2022/03/22 08:08:18;;;;;;;21.25;15.20;;;13.50;99.90;;;;;;5069272;28;20032;-59
2022/03/22 08:10:45;;;;;;;25.50;15.68;;;14.00;99.90;;;;;;5068074;28;20746;-57
2022/03/22 08:13:11;;;;;;;24.80;16.20;;;14.50;99.90;;;;;;5073153;28;20095;-58
2022/03/22 08:15:38;;;;;;;24.77;14.93;;;14.80;99.90;;;;;;5077405;28;20033;-58
2022/03/22 08:18:04;;;;;;;23.13;15.65;;;15.30;99.90;;;;;;5075142;28;20107;-57
2022/03/22 08:20:30;;;;;;;25.75;15.68;;;16.00;99.90;;;;;;5081168;28;20028;-58
2022/03/22 08:22:59;;;;;;;30.52;15.02;;;16.20;99.90;;;;;;5075497;28;20032;-58
2022/03/22 08:25:33;;;;;;;22.85;16.05;;;16.20;99.90;;;;;;5068371;28;20117;-58
2022/03/22 08:28:00;;;;;;;24.60;15.93;;;16.00;99.40;;;;;;5075780;28;20134;-58
2022/03/22 08:30:27;;;;;;;21.85;16.17;;;16.00;99.50;;;;;;5073617;28;20541;-58
2022/03/22 08:32:55;;;;;;;22.90;16.75;;;16.40;99.30;;;;;;5069525;28;20027;-58
2022/03/22 08:35:26;;;;;;;25.80;16.98;;;16.30;99.30;;;;;;5069310;28;20402;-58
2022/03/22 08:37:52;;;;;;;22.27;15.55;;;16.80;98.70;;;;;;5071232;28;20042;-57
2022/03/22 08:40:18;;;;;;;23.27;16.50;;;16.80;98.00;;;;;;5069572;28;20115;-58
2022/03/22 08:42:45;;;;;;;26.13;17.42;;;16.90;98.20;;;;;;5067259;28;20107;-58
2022/03/22 08:45:13;;;;;;;27.38;17.42;;;17.40;97.10;;;;;;5067075;28;20056;-57
2022/03/22 08:47:40;;;;;;;25.20;16.88;;;17.80;94.90;;;;;;5068192;28;20036;-58
2022/03/22 08:50:10;;;;;;;25.13;16.63;;;17.80;94.60;;;;;;5070826;28;20037;-57
2022/03/22 08:52:37;;;;;;;20.85;16.00;;;18.10;94.20;;;;;;5068994;28;20448;-57
2022/03/22 08:55:05;;;;;;;27.05;15.15;;;18.20;92.80;;;;;;5066665;28;20032;-57
2022/03/22 08:57:31;;;;;;;21.52;15.60;;;17.80;93.30;;;;;;5070964;28;20016;-57
2022/03/22 08:59:58;;;;;;;21.75;15.73;;;18.40;92.30;;;;;;5068887;28;20424;-58
2022/03/22 09:02:23;;;;;;;23.83;15.93;;;18.40;91.20;;;;;;5056919;28;20496;-57
2022/03/22 09:07:33;;;;;;;25.52;15.30;;;18.60;90.30;;;;;;5065440;28;20071;-58
2022/03/22 09:09:58;;;;;;;22.38;15.95;;;18.60;88.50;;;;;;5071357;28;20029;-58
2022/03/22 09:12:24;;;;;;;31.75;16.75;;;18.40;89.90;;;;;;5065080;28;20037;-58
2022/03/22 09:14:53;;;;;;;22.75;16.13;;;18.50;89.60;;;;;;5069455;28;20029;-58
2022/03/22 09:17:19;;;;;;;26.15;16.00;;;18.40;90.20;;;;;;5062953;28;20248;-58
2022/03/22 09:19:45;;;;;;;27.77;16.52;;;18.50;89.90;;;;;;5066104;28;20028;-58
2022/03/22 09:22:11;;;;;;;23.65;15.93;;;18.80;90.10;;;;;;5066750;28;20055;-58
2022/03/22 09:24:36;;;;;;;27.35;17.02;;;19.00;88.60;;;;;;5066874;28;20473;-58
2022/03/22 09:27:02;;;;;;;27.00;16.40;;;19.20;87.20;;;;;;5063386;28;20032;-58
2022/03/22 09:29:28;;;;;;;24.17;15.98;;;19.50;87.60;;;;;;5064454;28;20020;-58
2022/03/22 09:31:54;;;;;;;25.95;17.05;;;19.90;85.70;;;;;;5070317;28;20031;-58
2022/03/22 09:34:20;;;;;;;26.05;16.35;;;20.00;86.30;;;;;;5066224;28;20022;-58
2022/03/22 09:36:45;;;;;;;24.77;16.55;;;20.10;85.30;;;;;;5060775;28;20044;-58
2022/03/22 09:39:11;;;;;;;24.52;17.10;;;20.10;84.30;;;;;;5059991;28;20481;-57
2022/03/22 09:41:38;;;;;;;21.92;16.25;;;20.10;84.30;;;;;;5067967;28;20564;-57
2022/03/22 09:44:04;;;;;;;24.10;16.77;;;20.00;85.90;;;;;;5059956;28;20635;-57
2022/03/22 09:46:32;;;;;;;21.67;16.67;;;20.90;82.40;;;;;;5057321;28;20560;-57
2022/03/22 09:48:58;;;;;;;24.88;17.13;;;20.80;83.30;;;;;;5062895;28;20047;-57
2022/03/22 09:51:48;;;;;;;24.50;16.92;;;20.60;81.30;;;;;;5067106;28;20024;-57
2022/03/22 09:54:19;;;;;;;26.00;16.90;;;20.90;80.50;;;;;;5061456;28;20477;-57
2022/03/22 09:56:46;;;;;;;23.77;16.65;;;20.90;79.80;;;;;;5068513;28;20061;-57
2022/03/22 09:59:14;;;;;;;25.20;17.02;;;21.50;79.30;;;;;;5066075;28;20083;-58
2022/03/22 10:01:41;;;;;;;23.65;17.15;;;21.50;77.30;;;;;;5059456;28;20445;-58
2022/03/22 10:04:09;;;;;;;26.42;17.17;;;21.10;76.60;;;;;;5071498;28;20167;-58
2022/03/22 10:06:35;;;;;;;28.70;17.95;;;20.30;79.70;;;;;;5068994;28;20160;-58
2022/03/22 10:09:05;;;;;;;28.35;17.65;;;20.60;80.20;;;;;;5068450;28;20044;-58
2022/03/22 10:11:42;;;;;;;31.27;17.83;;;21.30;78.80;;;;;;5067645;28;20025;-59
2022/03/22 10:14:09;;;;;;;28.05;17.10;;;21.60;78.80;;;;;;5062838;28;20124;-58
2022/03/22 10:16:51;;;;;;;25.10;16.67;;;21.90;77.30;;;;;;5062052;28;20112;-58
2022/03/22 10:19:23;;;;;;;26.55;17.98;;;22.10;75.40;;;;;;5063078;28;20310;-58
2022/03/22 10:21:49;;;;;;;27.65;17.27;;;22.30;75.20;;;;;;5056334;28;20035;-58
2022/03/22 10:24:15;;;;;;;29.42;17.98;;;22.50;74.40;;;;;;5050308;28;20467;-58
2022/03/22 10:26:46;;;;;;;30.98;17.30;;;22.00;73.50;;;;;;5046016;28;20458;-58
2022/03/22 10:29:14;;;;;;;30.38;18.13;;;22.10;72.60;;;;;;5045032;28;20032;-58
2022/03/22 10:31:40;;;;;;;22.88;17.88;;;22.10;72.20;;;;;;5066555;28;20482;-59
2022/03/22 10:34:08;;;;;;;29.48;17.92;;;22.10;72.00;;;;;;5065413;28;20023;-58
2022/03/22 10:36:38;;;;;;;27.25;18.15;;;22.00;72.00;;;;;;5058629;28;20052;-59
2022/03/22 10:39:06;;;;;;;26.25;17.60;;;22.00;73.70;;;;;;5062052;28;20661;-58
2022/03/22 10:41:44;;;;;;;26.13;17.55;;;22.10;74.20;;;;;;5069054;28;20543;-59
2022/03/22 10:44:14;;;;;;;29.90;17.85;;;22.50;72.00;;;;;;5053312;28;20101;-59
2022/03/22 10:46:44;;;;;;;26.15;17.40;;;23.30;71.70;;;;;;5067529;28;20028;-59
2022/03/22 10:49:12;;;;;;;25.40;18.05;;;23.30;70.40;;;;;;5053025;28;20544;-59
2022/03/22 10:51:49;;;;;;;23.88;17.77;;;23.20;70.80;;;;;;5055611;28;20024;-59
2022/03/22 10:54:19;;;;;;;27.98;18.30;;;22.80;71.30;;;;;;5065201;28;20036;-59
2022/03/22 10:56:54;;;;;;;25.48;17.35;;;23.20;69.30;;;;;;5045737;28;20073;-58
2022/03/22 10:59:23;;;;;;;25.67;17.50;;;23.20;69.60;;;;;;5062121;28;20028;-58
2022/03/22 11:01:50;;;;;;;26.55;18.73;;;23.60;68.60;;;;;;5066841;28;20077;-58
2022/03/22 11:04:17;;;;;;;24.73;17.88;;;23.90;67.90;;;;;;5048298;28;20028;-58
2022/03/22 11:06:47;;;;;;;29.00;18.63;;;23.80;67.40;;;;;;5053354;28;20055;-58
2022/03/22 11:09:14;;;;;;;26.02;16.98;;;23.50;66.60;;;;;;5068433;28;20736;-58
2022/03/22 11:11:40;;;;;;;26.50;18.30;;;23.50;66.90;;;;;;5070995;28;20315;-58
2022/03/22 11:14:05;;;;;;;32.28;18.50;;;23.00;68.30;;;;;;5058904;28;20069;-58
2022/03/22 11:16:34;;;;;;;27.45;19.27;;;23.30;68.60;;;;;;5067204;28;20035;-59
2022/03/22 11:19:02;;;;;;;26.55;18.35;;;23.40;69.20;;;;;;5063146;28;20021;-60
2022/03/22 11:21:29;;;;;;;31.10;18.92;;;24.30;67.80;;;;;;5070210;28;20024;-59
2022/03/22 11:24:04;;;;;;;26.83;18.77;;;25.00;65.00;;;;;;5061059;28;20059;-58
2022/03/22 11:26:30;;;;;;;37.90;18.67;;;25.80;62.90;;;;;;5061795;28;20394;-59
2022/03/22 11:28:56;;;;;;;23.90;17.92;;;25.80;63.30;;;;;;5070803;28;20199;-58
2022/03/22 11:31:26;;;;;;;28.85;17.83;;;25.70;61.70;;;;;;5058568;28;20040;-59
2022/03/22 11:34:12;;;;;;;26.02;16.75;;;26.10;61.10;;;;;;5062057;28;20182;-60
2022/03/22 11:36:47;;;;;;;33.15;16.77;;;27.80;57.10;;;;;;5048855;28;20024;-59
2022/03/22 11:42:15;;;;;;;26.90;16.58;;;28.30;55.00;;;;;;5061225;28;20440;-60
2022/03/22 11:42:24;;;;;;;26.08;15.85;;;28.70;53.70;;;;;;5071598;28;20473;-58
2022/03/22 11:45:02;;;;;;;32.85;17.80;;;29.20;51.10;;;;;;5067879;28;20060;-58
2022/03/22 11:47:39;;;;;;;24.55;16.05;;;27.40;53.50;;;;;;5078231;28;20036;-59
2022/03/22 11:50:16;;;;;;;26.25;16.75;;;26.20;52.70;;;;;;5078010;28;20048;-59
2022/03/22 11:52:42;;;;;;;23.05;15.10;;;26.50;52.00;;;;;;5079179;28;20035;-59
2022/03/22 11:55:12;;;;;;;23.38;15.65;;;26.20;50.70;;;;;;5076345;28;20100;-59
2022/03/22 11:57:53;;;;;;;25.88;16.50;;;25.60;52.20;;;;;;5087553;28;20039;-60
2022/03/22 12:00:21;;;;;;;28.70;15.82;;;25.10;52.90;;;;;;5076933;28;20028;-60
2022/03/22 12:02:53;;;;;;;29.98;16.10;;;25.70;53.20;;;;;;5070651;28;20028;-60
2022/03/22 12:05:23;;;;;;;23.77;15.13;;;25.50;51.50;;;;;;5071358;28;20024;-59
2022/03/22 12:07:50;;;;;;;25.80;15.43;;;25.30;51.50;;;;;;5074326;28;20044;-58
2022/03/22 12:10:18;;;;;;;26.50;15.40;;;26.30;49.70;;;;;;5069745;28;20028;-58
2022/03/22 12:12:49;;;;;;;20.73;14.98;;;27.20;50.10;;;;;;5075597;28;20055;-58
2022/03/22 12:15:21;;;;;;;24.75;14.23;;;27.70;49.90;;;;;;5067651;28;20070;-66
2022/03/22 12:17:47;;;;;;;18.10;13.35;;;26.70;48.60;;;;;;5068371;28;20028;-60
2022/03/22 12:20:15;;;;;;;22.25;14.65;;;26.40;49.00;;;;;;5069692;28;20033;-60
2022/03/22 12:22:46;;;;;;;24.02;14.25;;;25.80;49.70;;;;;;5077695;28;20024;-62
2022/03/22 12:25:15;;;;;;;24.27;14.80;;;25.80;49.40;;;;;;5070676;28;20031;-63
2022/03/22 12:27:58;;;;;;;20.15;13.35;;;25.90;48.60;;;;;;5078523;28;20039;-61
2022/03/22 12:30:26;;;;;;;18.08;12.45;;;25.70;49.00;;;;;;5071050;28;20025;-62
2022/03/22 12:32:53;;;;;;;21.48;14.15;;;25.80;47.20;;;;;;5070506;28;20488;-60
2022/03/22 12:35:20;;;;;;;22.02;13.75;;;25.40;48.50;;;;;;5075080;28;20052;-60
2022/03/22 12:37:48;;;;;;;21.88;12.32;;;25.30;49.00;;;;;;5069033;28;20576;-60
2022/03/22 12:40:16;;;;;;;17.85;11.25;;;25.90;48.30;;;;;;5072865;28;20027;-60
2022/03/22 12:42:42;;;;;;;18.85;11.25;;;25.20;48.40;;;;;;5067275;28;20040;-60
2022/03/22 12:45:10;;;;;;;21.58;11.68;;;25.50;49.50;;;;;;5069476;28;20032;-60
2022/03/22 12:47:37;;;;;;;16.95;12.82;;;26.00;48.50;;;;;;5069090;28;20028;-60
2022/03/22 12:50:05;;;;;;;15.98;11.27;;;26.20;47.80;;;;;;5070805;28;20649;-60
2022/03/22 12:52:30;;;;;;;20.42;11.57;;;25.90;48.20;;;;;;5072636;28;20489;-60
2022/03/22 12:54:57;;;;;;;17.92;11.18;;;26.60;48.80;;;;;;5076646;28;20033;-60
2022/03/22 12:57:22;;;;;;;14.93;11.23;;;27.60;48.20;;;;;;5073132;28;20221;-60
2022/03/22 12:59:48;;;;;;;16.67;12.10;;;28.00;47.10;;;;;;5069062;28;20505;-60
2022/03/22 13:02:14;;;;;;;23.95;11.60;;;27.40;46.30;;;;;;5067592;28;20033;-60